Time;durP1;ratioP1;P1;durP2;ratioP2;P2;SDS_P1;SDS_P2;PMS_P1;PMS_P2;Temp;Humidity;BMP_temperature;BMP_pressure;BME280_temperature;BME280_humidity;BME280_pressure;Samples;Min_cycle;Max_cycle;Signal;HPM_P1;HPM_P2
2021/10/22 00:02:25;;;;;;;8.95;1.60;;;7.10;99.90;;;;;;5011073;28;20030;-71
2021/10/22 00:04:51;;;;;;;9.35;1.20;;;7.00;99.90;;;;;;5015085;28;20085;-71
2021/10/22 00:07:16;;;;;;;12.50;2.15;;;7.10;99.90;;;;;;5018841;28;20116;-71
2021/10/22 00:09:44;;;;;;;10.30;1.85;;;7.10;99.90;;;;;;5010385;28;20033;-72
2021/10/22 00:12:09;;;;;;;9.93;1.63;;;7.10;99.90;;;;;;5018966;28;20028;-71
2021/10/22 00:14:35;;;;;;;10.93;1.50;;;7.20;99.90;;;;;;5016126;28;20526;-71
2021/10/22 00:17:01;;;;;;;12.48;2.65;;;7.20;99.90;;;;;;5019335;28;20110;-71
2021/10/22 00:19:26;;;;;;;8.43;1.58;;;7.20;99.90;;;;;;5013396;28;20026;-70
2021/10/22 00:21:52;;;;;;;11.13;2.08;;;7.30;99.90;;;;;;5009010;28;20446;-71
2021/10/22 00:24:18;;;;;;;11.40;2.05;;;7.30;99.90;;;;;;5015479;28;20515;-72
2021/10/22 00:26:44;;;;;;;9.30;1.60;;;7.30;99.90;;;;;;5017359;28;20029;-71
2021/10/22 00:29:09;;;;;;;14.88;1.85;;;7.30;99.90;;;;;;5020538;28;20108;-71
2021/10/22 00:31:35;;;;;;;8.98;1.75;;;7.30;99.90;;;;;;5014466;28;20037;-71
2021/10/22 00:34:01;;;;;;;16.15;2.10;;;7.30;99.90;;;;;;5010760;28;20108;-72
2021/10/22 00:36:27;;;;;;;9.45;2.00;;;7.30;99.90;;;;;;5017754;28;20044;-71
2021/10/22 00:38:52;;;;;;;13.45;2.10;;;7.30;99.90;;;;;;5014494;28;20152;-71
2021/10/22 00:41:19;;;;;;;13.05;2.25;;;7.30;99.90;;;;;;5016964;28;20032;-71
2021/10/22 00:43:45;;;;;;;12.55;2.60;;;7.30;99.90;;;;;;5010448;28;20871;-71
2021/10/22 00:46:11;;;;;;;11.23;1.83;;;7.30;99.90;;;;;;5016622;28;20034;-71
2021/10/22 00:48:38;;;;;;;12.57;2.28;;;7.30;99.90;;;;;;5018544;28;20045;-72
2021/10/22 00:51:08;;;;;;;17.75;2.22;;;7.30;99.90;;;;;;5007381;28;20106;-71
2021/10/22 00:53:38;;;;;;;13.63;1.67;;;7.30;99.90;;;;;;5015324;28;20026;-72
2021/10/22 00:56:09;;;;;;;7.72;1.70;;;7.20;99.90;;;;;;5017839;28;20021;-70
2021/10/22 00:58:37;;;;;;;16.77;2.35;;;7.10;99.90;;;;;;5018076;28;20393;-71
2021/10/22 01:01:03;;;;;;;9.25;1.75;;;7.10;99.90;;;;;;5011301;28;20029;-71
2021/10/22 01:03:29;;;;;;;10.73;1.58;;;7.10;99.90;;;;;;5018078;28;20022;-71
2021/10/22 01:05:55;;;;;;;10.98;1.70;;;7.10;99.90;;;;;;5017927;28;20385;-71
2021/10/22 01:08:21;;;;;;;9.95;1.83;;;7.00;99.90;;;;;;5018502;28;20096;-71
2021/10/22 01:10:48;;;;;;;14.90;1.50;;;7.00;99.90;;;;;;5015791;28;20585;-71
2021/10/22 01:13:14;;;;;;;10.23;1.70;;;7.00;99.90;;;;;;5016580;28;20025;-73
2021/10/22 01:15:40;;;;;;;6.00;1.20;;;7.00;99.90;;;;;;5022447;28;20044;-71
2021/10/22 01:18:05;;;;;;;10.32;1.83;;;7.00;99.90;;;;;;5016162;28;20111;-70
2021/10/22 01:20:31;;;;;;;9.50;1.45;;;7.10;99.90;;;;;;5022115;28;20029;-71
2021/10/22 01:22:57;;;;;;;9.80;1.50;;;7.10;99.90;;;;;;5019758;28;20040;-71
2021/10/22 01:25:26;;;;;;;8.25;1.30;;;7.20;99.90;;;;;;5018244;28;20022;-71
2021/10/22 01:27:53;;;;;;;6.70;1.20;;;7.20;99.90;;;;;;5014070;28;20033;-71
2021/10/22 01:30:22;;;;;;;9.65;1.17;;;7.10;99.90;;;;;;5012011;28;20500;-72
2021/10/22 01:32:56;;;;;;;9.70;2.13;;;7.10;99.90;;;;;;5016988;28;20104;-71
2021/10/22 01:35:22;;;;;;;11.68;1.75;;;7.10;99.90;;;;;;5020191;28;20022;-72
2021/10/22 01:37:48;;;;;;;8.43;1.38;;;7.10;99.90;;;;;;5019705;28;20095;-71
2021/10/22 01:40:14;;;;;;;10.73;1.30;;;7.10;99.90;;;;;;5020324;28;20082;-71
2021/10/22 01:42:40;;;;;;;8.43;1.15;;;7.10;99.90;;;;;;5017085;28;20032;-72
2021/10/22 01:45:07;;;;;;;7.82;1.23;;;7.10;99.90;;;;;;5016877;28;20073;-71
2021/10/22 01:47:33;;;;;;;6.43;0.85;;;7.10;99.90;;;;;;5016510;28;20034;-71
2021/10/22 01:49:58;;;;;;;8.20;1.23;;;7.10;99.90;;;;;;5017863;28;20028;-71
2021/10/22 01:52:24;;;;;;;9.23;1.65;;;7.10;99.90;;;;;;5014839;28;20495;-71
2021/10/22 01:54:50;;;;;;;9.38;1.10;;;7.10;99.90;;;;;;5016192;28;20056;-71
2021/10/22 01:57:16;;;;;;;6.22;2.03;;;7.20;99.90;;;;;;5013825;28;20080;-71
2021/10/22 01:59:41;;;;;;;12.02;1.60;;;7.20;99.90;;;;;;5012989;28;20036;-71
2021/10/22 02:02:07;;;;;;;6.32;0.95;;;7.20;99.90;;;;;;5017008;28;20072;-71
2021/10/22 02:04:33;;;;;;;8.02;0.98;;;7.20;99.90;;;;;;5020815;28;20022;-71
2021/10/22 02:06:59;;;;;;;9.27;1.50;;;7.20;99.90;;;;;;5018082;28;20457;-71
2021/10/22 02:09:25;;;;;;;10.75;1.15;;;7.10;99.90;;;;;;5019534;28;20446;-70
2021/10/22 02:11:51;;;;;;;5.78;1.30;;;7.10;99.90;;;;;;5018716;28;20118;-71
2021/10/22 02:14:17;;;;;;;6.30;1.30;;;7.10;99.90;;;;;;5017752;28;20084;-71
2021/10/22 02:16:44;;;;;;;3.50;0.82;;;7.10;99.90;;;;;;5019143;28;20029;-71
2021/10/22 02:19:11;;;;;;;4.60;0.70;;;7.10;99.90;;;;;;5016759;28;20089;-71
2021/10/22 02:21:37;;;;;;;6.85;1.17;;;7.10;99.90;;;;;;5016314;28;20036;-71
2021/10/22 02:24:04;;;;;;;6.47;1.02;;;7.20;99.90;;;;;;5016559;28;20483;-72
2021/10/22 02:26:30;;;;;;;9.30;1.50;;;7.20;99.90;;;;;;5019020;28;20539;-71
2021/10/22 02:28:55;;;;;;;7.05;0.88;;;7.20;99.90;;;;;;5019414;28;20049;-71
2021/10/22 02:31:22;;;;;;;8.50;1.48;;;7.20;99.90;;;;;;5017335;28;20111;-71
2021/10/22 02:33:47;;;;;;;8.63;1.23;;;7.20;99.90;;;;;;5018357;28;20034;-71
2021/10/22 02:36:14;;;;;;;8.05;1.30;;;7.20;99.90;;;;;;5017985;28;20029;-71
2021/10/22 02:38:40;;;;;;;10.80;1.45;;;7.20;99.90;;;;;;5013330;28;20032;-71
2021/10/22 02:41:06;;;;;;;7.88;1.02;;;7.20;99.90;;;;;;5018346;28;20037;-71
2021/10/22 02:43:32;;;;;;;7.45;1.58;;;7.20;99.90;;;;;;5013237;28;20036;-71
2021/10/22 02:45:58;;;;;;;4.60;1.00;;;7.20;99.90;;;;;;5014588;28;20109;-72
2021/10/22 02:48:24;;;;;;;6.65;0.90;;;7.20;99.90;;;;;;5015441;28;20040;-71
2021/10/22 02:50:49;;;;;;;8.75;1.13;;;7.20;99.90;;;;;;5013964;28;20302;-71
2021/10/22 02:53:15;;;;;;;8.60;0.90;;;7.30;99.90;;;;;;5019572;28;20057;-71
2021/10/22 02:55:41;;;;;;;8.02;1.02;;;7.30;99.90;;;;;;5029780;28;20030;-71
2021/10/22 02:58:08;;;;;;;14.88;2.90;;;7.30;99.90;;;;;;5022624;28;20041;-71
2021/10/22 03:00:34;;;;;;;6.72;1.00;;;7.30;99.90;;;;;;5019208;28;20100;-71
2021/10/22 03:03:00;;;;;;;5.30;1.10;;;7.30;99.90;;;;;;5015828;28;20616;-71
2021/10/22 03:05:29;;;;;;;6.50;1.38;;;7.30;99.90;;;;;;5014130;28;20034;-71
2021/10/22 03:07:54;;;;;;;10.10;1.40;;;7.30;99.90;;;;;;5015592;28;20030;-71
2021/10/22 03:10:20;;;;;;;6.75;1.00;;;7.30;99.90;;;;;;5018779;28;20021;-71
2021/10/22 03:12:46;;;;;;;5.63;1.00;;;7.20;99.90;;;;;;5016883;28;20483;-72
2021/10/22 03:15:12;;;;;;;7.65;1.45;;;7.20;99.90;;;;;;5016939;28;20061;-71
2021/10/22 03:17:38;;;;;;;5.47;1.40;;;7.30;99.90;;;;;;5015760;28;20029;-71
2021/10/22 03:20:04;;;;;;;6.57;1.30;;;7.30;99.90;;;;;;5015679;28;20034;-71
2021/10/22 03:22:31;;;;;;;8.57;1.30;;;7.30;99.90;;;;;;5014704;28;20061;-72
2021/10/22 03:24:56;;;;;;;7.78;0.93;;;7.30;99.90;;;;;;5018598;28;20084;-71
2021/10/22 03:27:24;;;;;;;10.07;1.27;;;7.30;99.90;;;;;;5011881;28;20045;-71
2021/10/22 03:29:50;;;;;;;9.85;1.60;;;7.30;99.90;;;;;;5014148;28;20025;-71
2021/10/22 03:32:15;;;;;;;4.93;1.10;;;7.30;99.90;;;;;;5014103;28;20117;-71
2021/10/22 03:34:42;;;;;;;5.75;1.50;;;7.30;99.90;;;;;;5013086;28;20093;-72
2021/10/22 03:37:08;;;;;;;8.00;1.50;;;7.30;99.90;;;;;;5013345;28;20033;-72
2021/10/22 03:39:34;;;;;;;8.90;2.03;;;7.30;99.90;;;;;;5013624;28;20105;-70
2021/10/22 03:41:59;;;;;;;11.40;1.58;;;7.30;99.90;;;;;;5017122;28;20041;-70
2021/10/22 03:44:25;;;;;;;7.63;1.85;;;7.30;99.90;;;;;;5016941;28;20030;-71
2021/10/22 03:46:51;;;;;;;10.50;1.15;;;7.20;99.90;;;;;;5010515;28;20026;-71
2021/10/22 03:49:17;;;;;;;8.15;1.40;;;7.30;99.90;;;;;;5012076;28;20539;-71
2021/10/22 03:51:43;;;;;;;8.57;1.58;;;7.20;99.90;;;;;;5011067;28;20108;-71
2021/10/22 03:54:09;;;;;;;10.05;1.60;;;7.20;99.90;;;;;;5013481;28;20060;-71
2021/10/22 03:56:35;;;;;;;9.50;1.70;;;7.20;99.90;;;;;;5011228;28;20054;-71
2021/10/22 03:59:00;;;;;;;15.10;1.70;;;7.20;99.90;;;;;;5012136;28;20026;-71
2021/10/22 04:01:26;;;;;;;9.10;1.17;;;7.20;99.90;;;;;;5012772;28;20034;-73
2021/10/22 04:03:52;;;;;;;21.27;2.15;;;7.20;99.90;;;;;;5014414;28;20029;-71
2021/10/22 04:06:18;;;;;;;11.68;1.92;;;7.10;99.90;;;;;;5013861;28;20061;-71
2021/10/22 04:08:44;;;;;;;5.88;1.25;;;7.10;99.90;;;;;;5014104;28;20506;-71
2021/10/22 04:11:10;;;;;;;12.98;1.30;;;7.00;99.90;;;;;;5011663;28;20037;-71
2021/10/22 04:13:38;;;;;;;11.40;2.03;;;7.00;99.90;;;;;;5017119;28;20080;-71
2021/10/22 04:16:04;;;;;;;8.40;1.60;;;7.00;99.90;;;;;;5013703;28;20029;-71
2021/10/22 04:18:30;;;;;;;9.10;1.35;;;7.00;99.90;;;;;;5013873;28;20030;-72
2021/10/22 04:20:56;;;;;;;11.73;2.13;;;7.00;99.90;;;;;;5010637;28;20025;-71
2021/10/22 04:23:22;;;;;;;9.43;1.60;;;7.00;99.90;;;;;;5010972;28;20533;-71
2021/10/22 04:25:49;;;;;;;9.00;1.38;;;6.90;99.90;;;;;;5035419;28;20108;-72
2021/10/22 04:28:15;;;;;;;6.18;1.38;;;7.00;99.90;;;;;;5020359;28;20037;-71
2021/10/22 04:30:42;;;;;;;11.65;1.70;;;7.00;99.90;;;;;;5018356;28;20408;-71
2021/10/22 04:33:07;;;;;;;14.00;2.13;;;7.10;99.90;;;;;;5013933;28;20446;-70
2021/10/22 04:35:34;;;;;;;16.33;2.10;;;7.10;99.90;;;;;;5016842;28;20026;-70
2021/10/22 04:40:29;;;;;;;12.35;2.17;;;7.10;99.90;;;;;;5018827;28;20057;-70
2021/10/22 04:40:47;;;;;;;9.75;2.28;;;7.10;99.90;;;;;;5012718;28;20029;-70
2021/10/22 04:43:15;;;;;;;8.32;1.75;;;7.10;99.90;;;;;;5015869;28;20033;-71
2021/10/22 04:45:42;;;;;;;9.50;2.22;;;7.10;99.90;;;;;;5016527;28;20056;-70
2021/10/22 04:48:12;;;;;;;9.48;1.80;;;7.20;99.90;;;;;;5020477;28;20029;-70
2021/10/22 04:50:44;;;;;;;11.65;1.70;;;7.20;99.90;;;;;;5013915;28;20049;-70
2021/10/22 04:53:10;;;;;;;11.65;1.85;;;7.20;99.90;;;;;;5018663;28;20097;-70
2021/10/22 04:55:40;;;;;;;9.27;2.20;;;7.20;99.90;;;;;;5016944;28;20502;-70
2021/10/22 04:58:09;;;;;;;14.73;2.15;;;7.20;99.90;;;;;;5006409;28;20053;-70
2021/10/22 05:00:35;;;;;;;9.05;1.77;;;7.30;99.90;;;;;;5015826;28;20049;-71
2021/10/22 05:03:01;;;;;;;9.43;2.03;;;7.30;99.90;;;;;;5016445;28;20036;-70
2021/10/22 05:05:27;;;;;;;12.40;2.08;;;7.40;99.90;;;;;;5019163;28;20026;-70
2021/10/22 05:07:53;;;;;;;7.60;1.58;;;7.40;99.90;;;;;;5018544;28;20034;-70
2021/10/22 05:10:19;;;;;;;10.88;1.55;;;7.40;99.90;;;;;;5018956;28;20033;-70
2021/10/22 05:12:45;;;;;;;11.73;1.83;;;7.30;99.90;;;;;;5016452;28;20034;-72
2021/10/22 05:15:11;;;;;;;11.20;1.30;;;7.30;99.90;;;;;;5019833;28;20022;-70
2021/10/22 05:17:38;;;;;;;6.70;1.95;;;7.30;99.90;;;;;;5016653;28;20388;-71
2021/10/22 05:20:07;;;;;;;8.98;1.70;;;7.30;99.90;;;;;;5013228;28;20025;-71
2021/10/22 05:22:34;;;;;;;12.75;2.13;;;7.30;99.90;;;;;;5014409;28;21717;-71
2021/10/22 05:25:00;;;;;;;12.48;2.65;;;7.40;99.90;;;;;;5010467;28;20040;-71
2021/10/22 05:27:26;;;;;;;9.75;2.70;;;7.30;99.90;;;;;;5012377;28;20038;-71
2021/10/22 05:29:52;;;;;;;10.05;2.35;;;7.40;99.90;;;;;;5008365;28;20049;-70
2021/10/22 05:32:17;;;;;;;11.50;2.08;;;7.40;99.90;;;;;;5009945;28;20443;-71
2021/10/22 05:34:43;;;;;;;12.80;1.63;;;7.40;99.90;;;;;;5016248;28;20022;-71
2021/10/22 05:37:09;;;;;;;6.78;1.77;;;7.40;99.90;;;;;;5016072;28;20096;-71
2021/10/22 05:39:35;;;;;;;7.43;1.70;;;7.40;99.90;;;;;;5010884;28;20077;-71
2021/10/22 05:42:01;;;;;;;12.57;1.98;;;7.50;99.90;;;;;;5004891;28;20038;-72
2021/10/22 05:44:26;;;;;;;11.35;2.38;;;7.50;99.90;;;;;;5008481;28;20026;-72
2021/10/22 05:46:54;;;;;;;13.52;2.30;;;7.50;99.90;;;;;;5013870;28;20038;-71
2021/10/22 05:49:21;;;;;;;14.55;2.50;;;7.50;99.90;;;;;;5022785;28;20025;-70
2021/10/22 05:51:47;;;;;;;7.85;1.35;;;7.50;99.90;;;;;;5015246;28;20490;-71
2021/10/22 05:54:13;;;;;;;17.25;2.10;;;7.50;99.90;;;;;;5013558;28;20037;-71
2021/10/22 05:56:39;;;;;;;8.73;2.05;;;7.50;99.90;;;;;;5008643;28;20031;-71
2021/10/22 05:59:05;;;;;;;11.75;2.53;;;7.50;99.90;;;;;;5014064;28;20022;-70
2021/10/22 06:01:31;;;;;;;7.97;2.10;;;7.50;99.90;;;;;;5011447;28;20060;-70
2021/10/22 06:03:57;;;;;;;10.10;1.98;;;7.50;99.90;;;;;;5005045;28;20042;-70
2021/10/22 06:06:23;;;;;;;11.07;1.83;;;7.80;99.90;;;;;;5008495;28;20057;-70
2021/10/22 06:08:50;;;;;;;10.82;2.25;;;7.80;99.90;;;;;;5010332;28;20026;-71
2021/10/22 06:11:16;;;;;;;11.63;2.40;;;7.80;99.90;;;;;;5023418;28;20440;-70
2021/10/22 06:13:42;;;;;;;11.93;2.08;;;7.80;99.90;;;;;;5021145;28;20021;-71
2021/10/22 06:16:10;;;;;;;10.73;1.73;;;7.70;99.90;;;;;;5012239;28;20040;-71
2021/10/22 06:18:45;;;;;;;8.35;2.08;;;7.70;99.90;;;;;;5019596;28;20052;-71
2021/10/22 06:21:21;;;;;;;15.35;1.85;;;7.70;99.90;;;;;;5025924;28;20116;-71
2021/10/22 06:24:20;;;;;;;7.95;1.95;;;7.70;99.90;;;;;;5015842;28;20049;-72
2021/10/22 06:26:42;;;;;;;15.75;2.40;;;7.70;99.90;;;;;;5016855;28;20041;-71
2021/10/22 06:29:12;;;;;;;10.70;1.50;;;7.60;99.90;;;;;;5019120;28;20030;-70
2021/10/22 06:31:40;;;;;;;12.90;1.88;;;7.60;99.90;;;;;;5014840;28;20029;-71
2021/10/22 06:34:07;;;;;;;13.25;2.08;;;7.60;99.90;;;;;;5013377;28;20448;-71
2021/10/22 06:36:33;;;;;;;8.20;1.70;;;7.60;99.90;;;;;;5017483;28;20026;-71
2021/10/22 06:38:59;;;;;;;13.70;2.88;;;7.70;99.90;;;;;;5019772;28;20080;-71
2021/10/22 06:41:25;;;;;;;7.60;2.15;;;7.70;99.90;;;;;;5011957;28;20049;-72
2021/10/22 06:43:51;;;;;;;9.30;2.13;;;7.70;99.90;;;;;;5035743;28;20446;-71
2021/10/22 06:46:17;;;;;;;15.35;2.20;;;7.70;99.90;;;;;;5007389;28;20026;-71
2021/10/22 06:48:44;;;;;;;7.28;2.03;;;7.80;99.90;;;;;;5016774;28;20061;-71
2021/10/22 06:51:12;;;;;;;9.00;2.00;;;7.80;99.90;;;;;;5012981;28;20030;-71
2021/10/22 06:53:38;;;;;;;8.13;2.40;;;7.80;99.90;;;;;;5015518;28;20048;-71
2021/10/22 06:56:05;;;;;;;8.75;1.85;;;7.90;99.90;;;;;;5010855;28;20049;-71
2021/10/22 06:58:30;;;;;;;10.68;2.28;;;7.90;99.90;;;;;;5008565;28;20045;-72
2021/10/22 07:00:58;;;;;;;11.07;2.15;;;7.90;99.90;;;;;;5020240;28;20395;-71
2021/10/22 07:03:26;;;;;;;8.70;1.50;;;8.00;99.90;;;;;;5012519;28;20034;-72
2021/10/22 07:08:25;;;;;;;12.02;1.90;;;8.10;99.90;;;;;;5003763;28;20054;-72
2021/10/22 07:10:52;;;;;;;10.73;2.00;;;8.20;99.90;;;;;;5013410;28;20021;-71
2021/10/22 07:13:18;;;;;;;6.95;1.60;;;8.20;99.90;;;;;;5015209;28;20028;-71
2021/10/22 07:15:44;;;;;;;10.55;1.70;;;8.20;99.90;;;;;;5006037;28;20091;-71
2021/10/22 07:18:11;;;;;;;10.52;2.45;;;8.20;99.90;;;;;;5016658;28;20029;-71
2021/10/22 07:20:37;;;;;;;8.70;2.00;;;8.30;99.90;;;;;;5010778;28;20033;-71
2021/10/22 07:23:08;;;;;;;13.07;1.90;;;8.30;99.90;;;;;;5003156;28;20042;-71
2021/10/22 07:25:37;;;;;;;;;;;8.30;99.90;;;;;;5013157;28;20033;-70
2021/10/22 07:28:09;;;;;;;8.45;1.73;;;8.40;99.90;;;;;;5012160;28;20402;-71
2021/10/22 07:30:36;;;;;;;9.85;2.03;;;8.40;99.90;;;;;;5014953;28;20101;-71
2021/10/22 07:33:02;;;;;;;8.18;1.50;;;8.40;99.90;;;;;;5011823;28;20080;-72
2021/10/22 07:35:28;;;;;;;7.47;1.63;;;8.40;99.90;;;;;;5017124;28;20595;-71
2021/10/22 07:37:54;;;;;;;9.43;1.80;;;8.40;99.90;;;;;;5018018;28;20030;-71
2021/10/22 07:40:20;;;;;;;7.38;1.80;;;8.30;99.90;;;;;;5012607;28;20087;-71
2021/10/22 07:42:46;;;;;;;15.48;2.80;;;8.40;99.90;;;;;;5013953;28;20156;-71
2021/10/22 07:45:12;;;;;;;11.02;2.00;;;8.50;99.90;;;;;;5017274;28;20109;-72
2021/10/22 07:47:37;;;;;;;9.30;2.10;;;8.40;99.90;;;;;;5012189;28;20038;-72
2021/10/22 07:50:06;;;;;;;10.40;1.85;;;8.50;99.90;;;;;;5015579;28;20036;-71
2021/10/22 07:52:32;;;;;;;6.55;2.03;;;8.50;99.90;;;;;;5013677;28;20025;-72
2021/10/22 07:54:59;;;;;;;20.75;2.55;;;8.50;99.90;;;;;;5006092;28;20092;-72
2021/10/22 07:57:29;;;;;;;10.05;1.92;;;8.50;99.90;;;;;;5018643;28;20487;-73
2021/10/22 07:59:56;;;;;;;11.43;1.90;;;8.50;99.90;;;;;;5005443;28;20052;-72
2021/10/22 08:02:22;;;;;;;4.35;1.65;;;8.50;99.90;;;;;;5007802;28;20030;-72
2021/10/22 08:04:50;;;;;;;14.77;2.42;;;8.50;99.90;;;;;;5015954;28;20045;-71
2021/10/22 08:07:21;;;;;;;14.95;2.13;;;8.40;99.90;;;;;;5007354;28;20030;-72
2021/10/22 08:09:48;;;;;;;6.45;1.80;;;8.40;99.90;;;;;;5013857;28;20029;-72
2021/10/22 08:12:15;;;;;;;8.65;1.85;;;8.40;99.90;;;;;;5014021;28;20030;-72
2021/10/22 08:14:42;;;;;;;8.50;1.88;;;8.30;99.90;;;;;;5015266;28;20653;-72
2021/10/22 08:17:09;;;;;;;10.50;2.10;;;8.30;99.90;;;;;;5012039;28;20073;-72
2021/10/22 08:19:35;;;;;;;12.27;1.77;;;8.30;99.90;;;;;;5017266;28;20610;-72
2021/10/22 08:24:34;;;;;;;7.95;1.73;;;8.30;99.90;;;;;;5011808;28;20026;-72
2021/10/22 08:27:00;;;;;;;8.27;1.75;;;8.40;99.90;;;;;;5011628;28;20026;-72
2021/10/22 08:29:29;;;;;;;8.18;1.83;;;8.40;99.90;;;;;;5014232;28;20026;-71
2021/10/22 08:31:54;;;;;;;10.55;2.78;;;8.50;99.90;;;;;;5014722;28;20507;-72
2021/10/22 08:34:20;;;;;;;8.75;1.83;;;8.50;99.90;;;;;;5013774;28;20030;-72
2021/10/22 08:36:46;;;;;;;13.27;1.90;;;8.50;99.90;;;;;;5008108;28;20040;-73
2021/10/22 08:39:12;;;;;;;8.88;1.58;;;8.60;99.90;;;;;;5011992;28;20045;-72
2021/10/22 08:41:39;;;;;;;11.05;2.10;;;8.60;99.90;;;;;;5012118;28;20040;-75
2021/10/22 08:44:07;;;;;;;7.00;1.80;;;8.70;99.90;;;;;;5010448;28;20121;-73
2021/10/22 08:46:33;;;;;;;4.85;1.55;;;8.70;99.90;;;;;;5012449;28;20036;-72
2021/10/22 08:49:01;;;;;;;11.45;1.73;;;8.80;99.90;;;;;;5016732;28;20060;-73
2021/10/22 08:51:27;;;;;;;12.88;1.67;;;8.70;99.90;;;;;;5014628;28;20448;-72
2021/10/22 08:53:53;;;;;;;6.43;1.38;;;8.80;99.90;;;;;;5016989;28;20030;-73
2021/10/22 08:56:19;;;;;;;5.55;1.52;;;8.70;99.90;;;;;;5013092;28;20487;-72
2021/10/22 08:58:46;;;;;;;9.25;2.17;;;8.70;99.90;;;;;;5009953;28;20018;-71
2021/10/22 09:01:13;;;;;;;10.82;2.17;;;8.80;99.90;;;;;;5011850;28;20120;-71
2021/10/22 09:03:39;;;;;;;9.07;1.83;;;8.80;99.90;;;;;;5012960;28;20026;-72
2021/10/22 09:06:14;;;;;;;8.57;2.10;;;8.70;99.90;;;;;;5017021;28;20041;-71
2021/10/22 09:08:45;;;;;;;6.68;2.00;;;8.70;99.90;;;;;;5011388;28;20056;-71
2021/10/22 09:11:30;;;;;;;7.90;1.50;;;8.70;99.90;;;;;;5015126;28;20467;-71
2021/10/22 09:14:24;;;;;;;12.20;2.38;;;8.70;99.90;;;;;;5011717;28;20079;-70
2021/10/22 09:16:50;;;;;;;10.40;2.17;;;8.70;99.90;;;;;;5014572;28;20045;-70
2021/10/22 09:19:33;;;;;;;8.98;2.13;;;8.70;99.90;;;;;;5019088;28;20056;-71
2021/10/22 09:22:18;;;;;;;14.00;2.00;;;8.70;99.90;;;;;;5012596;28;20026;-70
2021/10/22 09:24:54;;;;;;;9.20;2.17;;;8.60;99.90;;;;;;5020042;28;20035;-70
2021/10/22 09:27:44;;;;;;;11.70;1.92;;;8.50;99.90;;;;;;5016052;28;20124;-71
2021/10/22 09:30:30;;;;;;;16.35;2.40;;;8.40;99.90;;;;;;5018785;28;20037;-71
2021/10/22 09:33:00;;;;;;;12.23;2.22;;;8.30;99.90;;;;;;5017121;28;20026;-69
2021/10/22 09:35:51;;;;;;;11.98;2.58;;;8.30;99.90;;;;;;5020224;28;20037;-69
2021/10/22 09:38:24;;;;;;;19.65;2.65;;;8.20;99.90;;;;;;5019942;28;20037;-70
2021/10/22 09:40:52;;;;;;;19.73;2.95;;;8.10;99.90;;;;;;5017574;28;20486;-70
2021/10/22 09:43:25;;;;;;;11.95;2.30;;;8.20;99.90;;;;;;5020751;28;20084;-70
2021/10/22 09:46:13;;;;;;;18.73;3.00;;;8.20;99.90;;;;;;5017707;28;20033;-69
2021/10/22 09:48:43;;;;;;;11.00;2.65;;;8.20;99.90;;;;;;5013492;28;20053;-70
2021/10/22 09:51:30;;;;;;;15.73;2.58;;;8.20;99.90;;;;;;5018392;28;20072;-70
2021/10/22 09:54:09;;;;;;;20.67;3.60;;;8.20;99.90;;;;;;5022016;28;20058;-70
2021/10/22 09:56:43;;;;;;;16.30;2.15;;;8.30;99.90;;;;;;5018215;28;20032;-69
2021/10/22 09:59:18;;;;;;;9.45;2.45;;;8.30;99.90;;;;;;5008218;28;20026;-71
2021/10/22 10:01:44;;;;;;;8.15;1.92;;;8.30;99.90;;;;;;5016798;28;20025;-70
2021/10/22 10:04:13;;;;;;;11.40;2.00;;;8.20;99.90;;;;;;5019800;28;20034;-70
2021/10/22 10:06:40;;;;;;;6.60;2.50;;;8.20;99.90;;;;;;5017452;28;20070;-71
2021/10/22 10:09:11;;;;;;;9.90;2.38;;;8.20;99.90;;;;;;5019146;28;20025;-71
2021/10/22 10:11:39;;;;;;;6.75;1.60;;;8.10;99.90;;;;;;5017193;28;20399;-71
2021/10/22 10:14:05;;;;;;;7.90;1.83;;;8.10;99.90;;;;;;5015793;28;20108;-70
2021/10/22 10:16:34;;;;;;;7.07;1.30;;;8.10;99.90;;;;;;5018053;28;20494;-71
2021/10/22 10:19:07;;;;;;;11.68;1.98;;;8.10;99.90;;;;;;5017071;28;20557;-71
2021/10/22 10:21:48;;;;;;;8.50;1.45;;;8.10;99.90;;;;;;5017031;28;20113;-71
2021/10/22 10:24:17;;;;;;;4.47;1.50;;;8.10;99.90;;;;;;5010046;28;20488;-70
2021/10/22 10:26:42;;;;;;;11.43;1.40;;;8.10;99.90;;;;;;5016450;28;20026;-70
2021/10/22 10:29:26;;;;;;;6.72;1.40;;;8.10;99.90;;;;;;5024369;28;20080;-70
2021/10/22 10:32:00;;;;;;;7.60;1.77;;;8.20;99.90;;;;;;5018126;28;20395;-71
2021/10/22 10:34:37;;;;;;;8.70;1.55;;;8.20;99.90;;;;;;5017964;28;20033;-70
2021/10/22 10:37:17;;;;;;;3.17;1.17;;;8.30;99.90;;;;;;5014190;28;20037;-71
2021/10/22 10:39:43;;;;;;;5.03;1.30;;;8.30;99.90;;;;;;5014295;28;20026;-71
2021/10/22 10:42:20;;;;;;;5.32;1.23;;;8.30;99.90;;;;;;5014754;28;20038;-71
2021/10/22 10:44:47;;;;;;;4.72;1.40;;;8.30;99.90;;;;;;5019886;28;20033;-71
2021/10/22 10:47:28;;;;;;;8.50;1.40;;;8.30;99.90;;;;;;5012954;28;20088;-71
2021/10/22 10:49:53;;;;;;;7.28;1.38;;;8.30;99.90;;;;;;5014831;28;20022;-70
2021/10/22 10:52:38;;;;;;;5.10;1.20;;;8.20;99.90;;;;;;5016726;28;20026;-71
2021/10/22 10:55:30;;;;;;;5.93;1.48;;;8.20;99.90;;;;;;5018645;28;20033;-71
2021/10/22 10:58:07;;;;;;;7.50;2.25;;;8.10;99.90;;;;;;5018939;28;20547;-70
2021/10/22 11:00:39;;;;;;;3.30;0.80;;;8.10;99.90;;;;;;5015745;28;20087;-70
2021/10/22 11:03:16;;;;;;;11.43;1.90;;;8.10;99.90;;;;;;5019270;28;20072;-71
2021/10/22 11:05:51;;;;;;;7.85;1.35;;;8.20;99.90;;;;;;5017047;28;20018;-71
2021/10/22 11:08:21;;;;;;;2.50;0.90;;;8.20;99.90;;;;;;5018004;28;20044;-71
2021/10/22 11:11:10;;;;;;;6.80;1.30;;;8.20;99.90;;;;;;5019750;28;20388;-71
2021/10/22 11:13:42;;;;;;;3.75;1.10;;;8.30;99.90;;;;;;5017632;28;20034;-71
2021/10/22 11:16:27;;;;;;;7.47;1.70;;;8.30;99.90;;;;;;5016123;28;20033;-71
2021/10/22 11:19:22;;;;;;;2.17;1.00;;;8.40;99.90;;;;;;5014367;28;20428;-71
2021/10/22 11:21:51;;;;;;;5.60;1.25;;;8.40;99.90;;;;;;5014703;28;20038;-71
2021/10/22 11:24:29;;;;;;;3.33;1.00;;;8.60;99.90;;;;;;5015921;28;20034;-71
2021/10/22 11:27:18;;;;;;;5.78;1.30;;;8.60;99.90;;;;;;5014904;28;20072;-73
2021/10/22 11:29:49;;;;;;;2.53;1.08;;;8.70;99.90;;;;;;5017695;28;20026;-72
2021/10/22 11:32:19;;;;;;;6.25;1.23;;;8.70;99.90;;;;;;5016544;28;20442;-71
2021/10/22 11:34:51;;;;;;;5.43;1.00;;;8.70;99.90;;;;;;5021140;28;20022;-72
2021/10/22 11:37:19;;;;;;;6.28;1.17;;;8.80;99.90;;;;;;5016367;28;20049;-71
2021/10/22 11:39:48;;;;;;;5.72;1.10;;;8.70;99.90;;;;;;5016176;28;20076;-71
2021/10/22 11:42:16;;;;;;;5.00;1.38;;;8.80;99.90;;;;;;5019219;28;20094;-74
2021/10/22 11:45:08;;;;;;;6.28;2.35;;;8.80;99.90;;;;;;5016550;28;20021;-71
2021/10/22 11:47:41;;;;;;;9.10;1.65;;;8.80;99.90;;;;;;5011978;28;20037;-71
2021/10/22 11:50:18;;;;;;;4.75;0.82;;;8.80;99.90;;;;;;5019848;28;20064;-72
2021/10/22 11:52:44;;;;;;;5.32;1.10;;;8.70;99.90;;;;;;5017031;28;20033;-73
2021/10/22 11:55:17;;;;;;;5.55;1.23;;;8.70;99.90;;;;;;5020544;28;20028;-72
2021/10/22 11:57:43;;;;;;;7.93;1.02;;;8.70;99.90;;;;;;5037564;28;20030;-71
2021/10/22 12:00:09;;;;;;;5.70;1.27;;;8.70;99.90;;;;;;5018091;28;20033;-72
2021/10/22 12:02:37;;;;;;;5.30;0.80;;;8.70;99.90;;;;;;5020211;28;20476;-71
2021/10/22 12:05:06;;;;;;;10.93;2.33;;;8.70;99.90;;;;;;5017153;28;20492;-72
2021/10/22 12:07:35;;;;;;;6.13;1.10;;;8.60;99.90;;;;;;5004422;28;20061;-73
2021/10/22 12:10:01;;;;;;;5.32;1.25;;;8.50;99.90;;;;;;5016004;28;20549;-73
2021/10/22 12:12:35;;;;;;;8.80;1.30;;;8.50;99.90;;;;;;5020802;28;20026;-74
2021/10/22 12:15:01;;;;;;;4.35;1.00;;;8.50;99.90;;;;;;5018919;28;20083;-71
2021/10/22 12:17:28;;;;;;;5.35;0.98;;;8.50;99.90;;;;;;5018397;28;20033;-72
2021/10/22 12:19:58;;;;;;;7.30;1.10;;;8.50;99.90;;;;;;5018491;28;20435;-73
2021/10/22 12:22:29;;;;;;;6.63;1.20;;;8.40;99.90;;;;;;5019141;28;20061;-73
2021/10/22 12:24:58;;;;;;;5.35;1.15;;;8.40;99.90;;;;;;5015413;28;20041;-73
2021/10/22 12:27:28;;;;;;;6.82;1.00;;;8.30;99.90;;;;;;5029604;28;20032;-73
2021/10/22 12:30:00;;;;;;;3.75;0.82;;;8.20;99.90;;;;;;5016713;28;20092;-71
2021/10/22 12:32:29;;;;;;;7.32;0.98;;;8.10;99.90;;;;;;5016216;28;20463;-73
2021/10/22 12:34:55;;;;;;;3.63;0.82;;;8.10;99.90;;;;;;5015491;28;20037;-73
2021/10/22 12:37:30;;;;;;;8.77;1.38;;;8.10;99.90;;;;;;5016030;28;20040;-71
2021/10/22 12:39:56;;;;;;;4.93;1.05;;;8.10;99.90;;;;;;5016217;28;20037;-71
2021/10/22 12:42:29;;;;;;;7.88;1.08;;;8.00;99.90;;;;;;5017153;28;20144;-71
2021/10/22 12:45:14;;;;;;;6.70;1.38;;;7.90;99.90;;;;;;5016929;28;20033;-71
2021/10/22 12:47:44;;;;;;;4.03;0.88;;;7.90;99.90;;;;;;5015812;28;20034;-72
2021/10/22 12:50:14;;;;;;;4.82;1.27;;;7.90;99.90;;;;;;5014829;28;20097;-72
2021/10/22 12:52:41;;;;;;;7.75;0.90;;;7.90;99.90;;;;;;5017924;28;20025;-71
2021/10/22 12:55:20;;;;;;;4.82;0.85;;;7.90;99.90;;;;;;5013642;28;20029;-71
2021/10/22 12:57:46;;;;;;;12.02;2.72;;;8.00;99.90;;;;;;5014617;28;20096;-71
2021/10/22 13:00:23;;;;;;;3.47;0.80;;;8.00;99.90;;;;;;5013559;28;20029;-72
2021/10/22 13:02:50;;;;;;;7.28;1.30;;;8.00;99.90;;;;;;5020633;28;20034;-72
2021/10/22 13:05:20;;;;;;;2.45;0.80;;;7.90;99.90;;;;;;5019606;28;20036;-72
2021/10/22 13:10:54;;;;;;;3.28;0.60;;;8.00;99.90;;;;;;5019944;28;20028;-72